GW4085 Weather Reports


Display with metric or nautical units.
time (UTC)temp
F
wind
direction
speed
MPH
gust
MPH
rain 1hr
in
rain 24hr
in
rain mn
in
humidity
%
barometer
mb
20240623110910 77 157 0.0 2.0 0.00 0.00 0.00 83 1015.5
20240623110410 78 173 0.0 5.0 0.00 0.00 0.00 83 1015.5
20240623105908 78 179 1.0 1.0 0.00 0.00 0.00 83 1015.5
20240623105407 78 160 0.0 3.0 0.00 0.00 0.00 83 1015.7
20240623104904 78 171 4.0 8.0 0.00 0.00 0.00 83 1015.6
20240623104403 78 168 0.0 0.0 0.00 0.00 0.00 83 1015.8
20240623103903 78 179 0.0 1.0 0.00 0.00 0.00 83 1015.4
20240623103400 78 170 1.0 2.0 0.00 0.00 0.00 83 1015.6
20240623102900 78 176 0.0 0.0 0.00 0.00 0.00 83 1015.7
20240623102358 78 155 1.0 2.0 0.00 0.00 0.00 83 1015.5
20240623101857 78 183 0.0 1.0 0.00 0.00 0.00 83 1015.6
20240623101355 78 167 0.0 2.0 0.00 0.00 0.00 82 1015.6
20240623100855 78 133 0.0 0.0 0.00 0.00 0.00 82 1015.3
20240623100353 78 161 0.0 0.0 0.00 0.00 0.00 82 1015.6
20240623095852 79 144 0.0 0.0 0.00 0.00 0.00 81 1015.3
20240623095351 79 144 0.0 0.0 0.00 0.00 0.00 81 1015.5
20240623094849 79 154 0.0 1.0 0.00 0.00 0.00 81 1015.3
20240623094348 79 178 2.0 3.0 0.00 0.00 0.00 80 1015.2
20240623093846 79 181 2.0 3.0 0.00 0.00 0.00 81 1015.3
20240623093345 79 247 1.0 2.0 0.00 0.00 0.00 80 1015.2
20240623092845 79 200 0.0 6.0 0.00 0.00 0.00 80 1015.0
20240623092344 79 190 0.0 6.0 0.00 0.00 0.00 80 1015.0
20240623091842 79 180 2.0 3.0 0.00 0.00 0.00 80 1014.9
20240623091341 79 272 2.0 5.0 0.00 0.00 0.00 80 1014.9
20240623090840 79 169 1.0 1.0 0.00 0.00 0.00 81 1015.0
20240623090337 79 174 0.0 2.0 0.00 0.00 0.00 80 1014.8
20240623085836 79 151 2.0 2.0 0.00 0.00 0.00 80 1014.8
20240623085335 79 180 3.0 6.0 0.00 0.00 0.00 81 1014.7
20240623084833 79 293 1.0 2.0 0.00 0.00 0.00 80 1014.7
20240623084329 79 186 1.0 2.0 0.00 0.00 0.00 80 1014.6
20240623083828 79 173 5.0 7.0 0.00 0.00 0.00 80 1014.7
20240623083324 79 191 3.0 3.0 0.00 0.00 0.00 80 1014.7
20240623082823 79 191 1.0 2.0 0.00 0.00 0.00 81 1015.0
20240623082320 79 165 2.0 3.0 0.00 0.00 0.00 81 1014.9
20240623081819 79 182 0.0 3.0 0.00 0.00 0.00 81 1014.7
20240623080600 79 163 0.0 1.0 0.00 0.00 0.00 82 1014.9
20240623080058 78 169 1.0 3.0 0.00 0.00 0.00 82 1014.8
20240623075557 78 163 1.0 2.0 0.00 0.00 0.00 81 1014.8
20240623075056 78 171 2.0 5.0 0.00 0.00 0.00 82 1015.0
20240623074555 78 177 1.0 2.0 0.00 0.00 0.00 82 1014.8
20240623074053 78 168 1.0 2.0 0.00 0.00 0.00 82 1014.8
20240623073553 78 160 2.0 3.0 0.00 0.00 0.00 82 1014.8
20240623073051 78 172 5.0 7.0 0.00 0.00 0.00 82 1014.7
20240623072551 78 169 3.0 3.0 0.00 0.00 0.00 81 1014.8
20240623072047 78 173 0.0 2.0 0.00 0.00 0.00 82 1014.8
20240623071547 78 126 2.0 3.0 0.00 0.00 0.00 82 1014.8
20240623071046 78 148 1.0 3.0 0.00 0.00 0.00 82 1014.9
20240623070545 78 205 0.0 1.0 0.00 0.00 0.00 82 1015.0
20240623070044 78 163 2.0 3.0 0.00 0.00 0.00 82 1015.0
20240623065543 78 186 1.0 3.0 0.00 0.00 0.00 81 1014.9
20240623065039 78 181 0.0 5.0 0.00 0.00 0.00 81 1015.0
20240623064537 78 142 1.0 2.0 0.00 0.00 0.00 81 1015.0
20240623064037 78 196 1.0 2.0 0.00 0.00 0.00 81 1014.9
20240623063536 78 220 5.0 6.0 0.00 0.00 0.00 82 1015.1
20240623063035 78 149 0.0 3.0 0.00 0.00 0.00 82 1014.9
20240623062534 78 192 2.0 2.0 0.00 0.00 0.00 82 1014.9
20240623062033 77 157 1.0 3.0 0.00 0.00 0.00 82 1015.1
20240623061533 77 161 3.0 3.0 0.00 0.00 0.00 83 1014.8
20240623061033 77 184 2.0 3.0 0.00 0.00 0.00 83 1015.0
20240623060531 77 191 2.0 2.0 0.00 0.00 0.00 83 1015.0
20240623060030 77 176 3.0 5.0 0.00 0.00 0.00 83 1015.1
20240623055529 77 140 0.0 0.0 0.00 0.00 0.00 83 1015.1
20240623055029 77 155 0.0 2.0 0.00 0.00 0.00 83 1015.1
20240623054527 77 179 0.0 2.0 0.00 0.00 0.00 83 1015.0
20240623054025 77 197 1.0 5.0 0.00 0.00 0.00 82 1015.1
20240623053524 77 169 1.0 1.0 0.00 0.00 0.00 82 1015.1
20240623053023 77 267 1.0 2.0 0.00 0.00 0.00 82 1015.1
20240623052521 77 176 4.0 7.0 0.00 0.00 0.00 82 1015.0
20240623052020 77 181 3.0 3.0 0.00 0.00 0.00 82 1015.1
20240623051517 77 178 2.0 2.0 0.00 0.00 0.00 82 1015.0
20240623051016 78 183 3.0 5.0 0.00 0.00 0.00 82 1015.2
20240623050515 78 133 0.0 5.0 0.00 0.00 0.00 81 1015.2
20240623050014 78 168 1.0 2.0 0.00 0.00 0.00 82 1015.0
20240623045512 78 192 2.0 6.0 0.00 0.00 0.00 81 1015.1
20240623045011 78 144 2.0 3.0 0.00 0.00 0.00 81 1015.1
20240623044510 78 159 1.0 5.0 0.00 0.00 0.00 81 1015.3
20240623044009 78 167 2.0 3.0 0.00 0.00 0.00 81 1015.3
20240623043509 78 165 4.0 5.0 0.00 0.00 0.00 81 1015.5
20240623043008 78 148 1.0 2.0 0.00 0.00 0.00 81 1015.2
20240623042505 78 170 0.0 2.0 0.00 0.00 0.00 81 1015.5
20240623042003 78 173 1.0 1.0 0.00 0.00 0.00 81 1015.5
20240623041502 78 173 1.0 2.0 0.00 0.00 0.00 81 1015.4
20240623041000 78 186 1.0 2.0 0.00 0.00 0.00 81 1015.2
20240623040500 78 161 0.0 2.0 0.00 0.00 0.00 81 1015.2
20240623035959 78 152 2.0 2.0 0.00 0.00 0.00 80 1015.2
20240623035457 78 172 0.0 1.0 0.00 0.00 0.00 81 1015.3
20240623034955 78 173 0.0 1.0 0.00 0.00 0.00 80 1015.3
20240623034454 79 170 0.0 2.0 0.00 0.00 0.00 80 1015.3
20240623033953 79 176 1.0 2.0 0.00 0.00 0.00 79 1015.4
20240623033451 79 169 0.0 1.0 0.00 0.00 0.00 80 1015.5
20240623032949 79 171 0.0 2.0 0.00 0.00 0.00 79 1015.5
20240623032448 79 167 0.0 2.0 0.00 0.00 0.00 79 1015.3
20240623031944 79 169 1.0 2.0 0.00 0.00 0.00 78 1015.3
20240623031442 80 169 0.0 1.0 0.00 0.00 0.00 78 1015.4
20240623030941 80 175 0.0 0.0 0.00 0.00 0.00 78 1015.4
20240623030440 80 165 1.0 2.0 0.00 0.00 0.00 78 1015.3
20240623025939 80 161 0.0 0.0 0.00 0.00 0.00 78 1015.3
20240623025437 80 179 0.0 1.0 0.00 0.00 0.00 78 1015.2
20240623024937 80 168 0.0 2.0 0.00 0.00 0.00 78 1015.1
20240623024435 80 185 1.0 2.0 0.00 0.00 0.00 78 1015.3
20240623023934 80 174 0.0 2.0 0.00 0.00 0.00 78 1015.1
20240623023433 80 188 0.0 1.0 0.00 0.00 0.00 78 1014.8
20240623022933 80 159 0.0 0.0 0.00 0.00 0.00 78 1015.0
20240623022432 80 167 0.0 2.0 0.00 0.00 0.00 78 1015.1
20240623021932 80 147 0.0 1.0 0.00 0.00 0.00 78 1015.1
20240623021430 81 172 1.0 2.0 0.00 0.00 0.00 77 1014.9
20240623020929 81 180 1.0 2.0 0.00 0.00 0.00 78 1015.0
20240623020427 81 170 0.0 0.0 0.00 0.00 0.00 78 1014.9
20240623015926 81 177 1.0 2.0 0.00 0.00 0.00 77 1015.1
20240623015425 81 164 0.0 1.0 0.00 0.00 0.00 77 1015.0
20240623014923 81 182 0.0 1.0 0.00 0.00 0.00 77 1015.1
20240623014421 82 163 0.0 2.0 0.00 0.00 0.00 76 1015.1
20240623013919 82 174 0.0 1.0 0.00 0.00 0.00 76 1014.8
20240623013419 82 160 0.0 2.0 0.00 0.00 0.00 76 1015.3
20240623012918 82 180 2.0 2.0 0.00 0.00 0.00 75 1015.4
20240623012417 83 188 0.0 2.0 0.00 0.00 0.00 75 1015.3
20240623011915 83 168 0.0 0.0 0.00 0.00 0.00 74 1015.3
20240623011412 83 158 0.0 2.0 0.00 0.00 0.00 74 1015.3
20240623010912 84 180 0.0 2.0 0.00 0.00 0.00 73 1015.3
20240623010410 84 173 1.0 5.0 0.00 0.00 0.00 73 1015.3
20240623005910 84 175 1.0 3.0 0.00 0.00 0.00 73 1015.5
20240623005410 84 180 0.0 2.0 0.00 0.00 0.00 72 1015.3
20240623004908 84 169 3.0 3.0 0.00 0.00 0.00 72 1015.5
20240623004408 85 160 0.0 3.0 0.00 0.00 0.00 72 1015.3
20240623003908 85 176 1.0 2.0 0.00 0.00 0.00 72 1015.6
20240623003407 85 204 1.0 3.0 0.00 0.00 0.00 71 1015.5
20240623002907 85 184 0.0 3.0 0.00 0.00 0.00 71 1015.5
20240623002405 86 181 0.0 5.0 0.00 0.00 0.00 69 1015.8
20240623001903 86 207 3.0 5.0 0.00 0.00 0.00 68 1015.7
20240623001401 86 212 4.0 7.0 0.00 0.00 0.00 67 1015.4
20240623000900 86 181 3.0 5.0 0.00 0.00 0.00 67 1015.6
20240623000359 86 167 2.0 3.0 0.00 0.00 0.00 67 1015.4
20240622235857 86 143 3.0 6.0 0.00 0.00 0.00 66 1015.6
20240622235356 86 152 3.0 7.0 0.00 0.00 0.00 66 1015.5
20240622234854 86 156 2.0 9.0 0.00 0.00 0.00 66 1015.7
20240622234353 87 221 4.0 10.0 0.00 0.00 0.00 66 1015.7
20240622233852 87 173 1.0 7.0 0.00 0.00 0.00 66 1015.7
20240622233350 87 160 3.0 9.0 0.00 0.00 0.00 66 1015.7
20240622232847 87 197 4.0 8.0 0.00 0.00 0.00 66 1015.8
20240622232346 87 178 4.0 7.0 0.00 0.00 0.00 64 1015.8
20240622231846 88 176 3.0 5.0 0.00 0.00 0.00 65 1015.9
20240622231344 89 181 6.0 8.0 0.00 0.00 0.00 63 1015.9
20240622230844 89 141 4.0 8.0 0.00 0.00 0.00 63 1015.5
20240622230342 89 187 4.0 7.0 0.00 0.00 0.00 63 1015.8
20240622225840 88 189 5.0 8.0 0.00 0.00 0.00 63 1015.9
20240622225338 89 264 5.0 7.0 0.00 0.00 0.00 62 1015.9
20240622224837 88 183 2.0 7.0 0.00 0.00 0.00 65 1016.0
20240622224336 89 158 4.0 5.0 0.00 0.00 0.00 64 1015.8
20240622223835 87 151 2.0 6.0 0.00 0.00 0.00 66 1016.0
20240622223333 87 182 1.0 6.0 0.00 0.00 0.00 65 1016.0
20240622222832 88 181 5.0 10.0 0.00 0.00 0.00 64 1016.0
20240622222331 89 190 4.0 7.0 0.00 0.00 0.00 64 1016.0
20240622221829 89 212 5.0 8.0 0.00 0.00 0.00 64 1016.2
20240622221328 90 183 5.0 9.0 0.00 0.00 0.00 62 1016.4
20240622220827 89 160 1.0 5.0 0.00 0.00 0.00 64 1016.3
20240622220325 88 220 3.0 6.0 0.00 0.00 0.00 63 1016.4
20240622215825 88 262 4.0 10.0 0.00 0.00 0.00 62 1016.5
20240622215324 88 200 2.0 5.0 0.00 0.00 0.00 63 1016.5
20240622214822 89 206 7.0 8.0 0.00 0.00 0.00 63 1016.5
20240622214320 89 175 5.0 8.0 0.00 0.00 0.00 63 1016.3
20240622213819 90 172 5.0 7.0 0.00 0.00 0.00 64 1016.4
20240622213317 90 192 4.0 7.0 0.00 0.00 0.00 62 1016.4
20240622212816 90 158 4.0 9.0 0.00 0.00 0.00 61 1016.6
20240622212315 89 191 2.0 9.0 0.00 0.00 0.00 63 1016.4
20240622211814 90 217 7.0 11.0 0.00 0.00 0.00 60 1016.5
20240622211312 90 238 5.0 9.0 0.00 0.00 0.00 62 1016.7
20240622210809 90 137 6.0 15.0 0.00 0.00 0.00 61 1016.8
20240622210308 89 129 4.0 8.0 0.00 0.00 0.00 60 1016.8
20240622205808 89 224 3.0 11.0 0.00 0.00 0.00 63 1016.8
20240622205306 88 178 3.0 6.0 0.00 0.00 0.00 64 1017.1
20240622204805 88 157 5.0 11.0 0.00 0.00 0.00 63 1017.1
20240622204304 88 190 5.0 7.0 0.00 0.00 0.00 64 1016.8
20240622203802 88 175 4.0 8.0 0.00 0.00 0.00 64 1017.3
20240622203300 88 165 3.0 11.0 0.00 0.00 0.00 66 1017.1
20240622202759 88 191 8.0 11.0 0.00 0.00 0.00 63 1017.3
20240622202257 88 180 5.0 9.0 0.00 0.00 0.00 65 1017.3
20240622201755 88 150 4.0 9.0 0.00 0.00 0.00 63 1017.4
20240622201254 87 141 5.0 8.0 0.00 0.00 0.00 65 1017.4
20240622200753 88 172 1.0 7.0 0.00 0.00 0.00 65 1017.4
20240622200252 89 181 5.0 10.0 0.00 0.00 0.00 65 1017.6
20240622195750 88 176 4.0 8.0 0.00 0.00 0.00 64 1017.5
20240622195249 89 180 3.0 9.0 0.00 0.00 0.00 65 1017.5
20240622194748 88 185 3.0 6.0 0.00 0.00 0.00 63 1017.6
20240622194247 88 156 6.0 11.0 0.00 0.00 0.00 65 1017.9
20240622193746 88 180 3.0 7.0 0.00 0.00 0.00 67 1018.1
20240622193246 88 185 3.0 6.0 0.00 0.00 0.00 66 1017.8
20240622192745 87 163 5.0 9.0 0.00 0.00 0.00 67 1018.0
20240622192244 88 191 4.0 9.0 0.00 0.00 0.00 66 1017.9
20240622191744 87 177 5.0 11.0 0.00 0.00 0.00 65 1018.2
20240622191244 86 186 6.0 8.0 0.00 0.00 0.00 67 1018.2
20240622190743 87 173 5.0 9.0 0.00 0.00 0.00 68 1018.0
20240622190243 87 180 3.0 7.0 0.00 0.00 0.00 68 1018.0
20240622185741 87 167 3.0 8.0 0.00 0.00 0.00 66 1018.0
20240622185240 88 214 6.0 8.0 0.00 0.00 0.00 64 1018.1
20240622184739 88 176 3.0 6.0 0.00 0.00 0.00 67 1017.9
20240622184238 88 177 4.0 6.0 0.00 0.00 0.00 66 1018.0
20240622183736 87 148 7.0 13.0 0.00 0.00 0.00 65 1018.2
20240622183235 87 253 6.0 14.0 0.00 0.00 0.00 65 1017.9
20240622182734 87 181 7.0 11.0 0.00 0.00 0.00 66 1018.0
20240622182232 86 132 4.0 8.0 0.00 0.00 0.00 68 1018.5
20240622181731 87 170 3.0 6.0 0.00 0.00 0.00 68 1018.2
20240622181230 87 162 2.0 9.0 0.00 0.00 0.00 67 1018.4
20240622180729 87 196 3.0 9.0 0.00 0.00 0.00 67 1018.5
20240622180228 87 105 5.0 8.0 0.00 0.00 0.00 67 1018.5
20240622175727 87 159 6.0 11.0 0.00 0.00 0.00 66 1018.6
20240622175226 87 174 4.0 7.0 0.00 0.00 0.00 66 1018.6
20240622174725 86 148 3.0 10.0 0.00 0.00 0.00 70 1018.7
20240622174224 87 185 5.0 13.0 0.00 0.00 0.00 67 1018.7
20240622173722 87 175 3.0 8.0 0.00 0.00 0.00 67 1018.9
20240622173220 87 223 3.0 10.0 0.00 0.00 0.00 68 1019.0
20240622172720 86 157 3.0 11.0 0.00 0.00 0.00 68 1018.9
20240622172219 87 205 6.0 9.0 0.00 0.00 0.00 66 1018.9
20240622171717 87 182 4.0 7.0 0.00 0.00 0.00 66 1019.0
20240622171215 87 193 5.0 9.0 0.00 0.00 0.00 66 1018.9
20240622170713 86 159 6.0 8.0 0.00 0.00 0.00 67 1019.0
20240622170213 86 179 7.0 11.0 0.00 0.00 0.00 68 1018.9
20240622165712 85 194 3.0 10.0 0.00 0.00 0.00 70 1019.0
20240622165211 85 144 2.0 9.0 0.00 0.00 0.00 69 1019.1
20240622164709 86 176 4.0 13.0 0.00 0.00 0.00 68 1019.1
20240622164208 85 180 6.0 14.0 0.00 0.00 0.00 68 1019.3
20240622163706 85 169 5.0 7.0 0.00 0.00 0.00 69 1019.2
20240622163206 85 179 4.0 10.0 0.00 0.00 0.00 69 1019.2
20240622162705 86 177 2.0 6.0 0.00 0.00 0.00 70 1019.2
20240622162204 85 188 5.0 8.0 0.00 0.00 0.00 69 1019.4
20240622161703 84 186 4.0 15.0 0.00 0.00 0.00 70 1019.3
20240622161203 85 191 4.0 11.0 0.00 0.00 0.00 70 1019.3
20240622160702 84 144 4.0 6.0 0.00 0.00 0.00 72 1019.3
20240622160200 84 185 2.0 5.0 0.00 0.00 0.00 74 1019.2
20240622155659 84 197 3.0 8.0 0.00 0.00 0.00 72 1019.5
20240622155157 83 95 4.0 7.0 0.00 0.00 0.00 71 1019.3
20240622154656 83 168 4.0 9.0 0.00 0.00 0.00 74 1019.6
20240622154154 83 163 5.0 9.0 0.00 0.00 0.00 72 1019.7
20240622153654 83 216 5.0 8.0 0.00 0.00 0.00 72 1019.8
20240622153154 83 162 3.0 7.0 0.00 0.00 0.00 72 1019.7
20240622152652 82 83 1.0 6.0 0.00 0.00 0.00 74 1019.7
20240622152150 82 171 4.0 7.0 0.00 0.00 0.00 72 1019.8
20240622151649 82 199 4.0 6.0 0.00 0.00 0.00 73 1020.2
20240622151148 81 140 5.0 8.0 0.00 0.00 0.00 73 1019.8
20240622150646 81 177 5.0 7.0 0.00 0.00 0.00 72 1020.1
20240622150144 81 178 5.0 9.0 0.00 0.00 0.00 73 1020.0
20240622145643 80 169 4.0 10.0 0.00 0.00 0.00 75 1020.0
20240622145142 80 214 5.0 8.0 0.00 0.00 0.00 74 1019.8
20240622144641 80 152 3.0 9.0 0.00 0.00 0.00 75 1020.2
20240622144139 80 195 4.0 6.0 0.00 0.00 0.00 74 1019.8
20240622143638 79 213 2.0 7.0 0.00 0.00 0.00 76 1020.0
20240622143136 80 182 3.0 10.0 0.00 0.00 0.00 75 1020.1
20240622142635 79 175 5.0 7.0 0.00 0.00 0.00 76 1020.2
20240622142134 78 150 5.0 6.0 0.00 0.00 0.00 77 1020.2
20240622141632 78 180 1.0 5.0 0.00 0.00 0.00 79 1020.5
20240622141131 78 171 2.0 6.0 0.00 0.00 0.00 78 1020.4
20240622140630 78 150 4.0 8.0 0.00 0.00 0.00 79 1020.5
20240622140128 78 141 1.0 5.0 0.00 0.00 0.00 79 1020.1
20240622135625 78 183 1.0 5.0 0.00 0.00 0.00 81 1020.7
20240622135123 77 165 1.0 6.0 0.00 0.00 0.00 82 1020.5
20240622134621 77 176 4.0 5.0 0.00 0.00 0.00 81 1020.4
20240622134120 76 182 3.0 6.0 0.00 0.00 0.00 82 1020.5
20240622133619 76 167 4.0 8.0 0.00 0.00 0.00 82 1020.6
20240622133117 75 179 2.0 5.0 0.00 0.00 0.00 82 1020.7
20240622132616 75 144 1.0 6.0 0.00 0.00 0.00 82 1020.6
20240622132114 75 186 2.0 5.0 0.00 0.00 0.00 83 1020.9
20240622131612 74 171 3.0 5.0 0.00 0.00 0.00 84 1020.9
20240622131112 74 212 3.0 3.0 0.00 0.00 0.00 84 1020.8
20240622130610 73 157 0.0 5.0 0.00 0.00 0.00 86 1020.7
20240622130110 73 149 2.0 5.0 0.00 0.00 0.00 86 1020.6
20240622125609 73 172 1.0 2.0 0.00 0.00 0.00 86 1020.8
20240622125107 73 159 0.0 2.0 0.00 0.00 0.00 86 1020.8
20240622124605 72 167 1.0 2.0 0.00 0.00 0.00 87 1020.7
20240622124103 72 173 1.0 2.0 0.00 0.00 0.00 87 1020.8
20240622123603 72 160 1.0 2.0 0.00 0.00 0.00 88 1020.8
20240622123101 71 165 1.0 3.0 0.00 0.00 0.00 88 1020.8
20240622122558 71 180 1.0 5.0 0.00 0.00 0.00 88 1020.8
20240622122057 71 163 1.0 2.0 0.00 0.00 0.00 89 1020.8
20240622121556 70 171 0.0 2.0 0.00 0.00 0.00 89 1020.8
20240622121055 70 152 0.0 2.0 0.00 0.00 0.00 90 1020.5
20240622120553 69 171 1.0 2.0 0.00 0.00 0.00 90 1020.7
20240622120052 69 204 3.0 5.0 0.00 0.00 0.00 90 1020.7
20240622115551 69 169 2.0 5.0 0.00 0.00 0.00 90 1020.9
20240622115050 69 178 1.0 2.0 0.00 0.00 0.00 90 1020.8
20240622114549 69 187 1.0 2.0 0.00 0.00 0.00 90 1020.7
20240622114047 69 173 0.0 2.0 0.00 0.00 0.00 90 1020.9
20240622113547 69 177 0.0 1.0 0.00 0.00 0.00 90 1020.8
20240622113045 69 172 0.0 1.0 0.00 0.00 0.00 90 1020.9
20240622112543 69 167 0.0 1.0 0.00 0.00 0.00 90 1020.8
20240622112042 69 174 1.0 1.0 0.00 0.00 0.00 90 1020.6
20240622111541 69 156 0.0 0.0 0.00 0.00 0.00 90 1021.0